createdAt,value
2019-01-31T00:01:06.928Z,-0.17
2019-01-31T00:04:21.818Z,-0.16
2019-01-31T00:07:46.129Z,-0.15
2019-01-31T00:10:40.959Z,-0.16
2019-01-31T00:14:11.830Z,-0.18
2019-01-31T00:17:16.621Z,-0.19
2019-01-31T00:20:12.292Z,-0.18
2019-01-31T00:23:25.363Z,-0.17
2019-01-31T00:26:43.543Z,-0.19
2019-01-31T00:30:05.469Z,-0.17
2019-01-31T00:33:12.167Z,-0.18
2019-01-31T00:36:15.159Z,-0.21
2019-01-31T00:39:32.999Z,-0.19
2019-01-31T00:42:07.404Z,-0.22
2019-01-31T00:45:09.006Z,-0.22
2019-01-31T00:48:17.976Z,-0.21
2019-01-31T00:50:54.056Z,-0.21
2019-01-31T00:53:43.678Z,-0.19
2019-01-31T00:56:46.031Z,-0.20
2019-01-31T00:59:55.248Z,-0.22
2019-01-31T01:03:00.849Z,-0.20
2019-01-31T01:05:58.227Z,-0.23
2019-01-31T01:09:25.122Z,-0.22
2019-01-31T01:12:05.462Z,-0.19
2019-01-31T01:15:02.974Z,-0.16
2019-01-31T01:17:51.786Z,-0.17
2019-01-31T01:20:51.923Z,-0.21
2019-01-31T01:24:10.117Z,-0.19
2019-01-31T01:26:48.098Z,-0.19
2019-01-31T01:29:56.159Z,-0.19
2019-01-31T01:33:24.635Z,-0.21
2019-01-31T01:36:15.953Z,-0.20
2019-01-31T01:39:19.807Z,-0.23
2019-01-31T01:42:24.178Z,-0.20
2019-01-31T01:45:06.023Z,-0.19
2019-01-31T01:47:33.434Z,-0.20
2019-01-31T01:50:11.860Z,-0.21
2019-01-31T01:53:39.802Z,-0.23
2019-01-31T01:56:49.824Z,-0.24
2019-01-31T01:59:16.920Z,-0.23
2019-01-31T02:02:16.997Z,-0.28
2019-01-31T02:05:05.599Z,-0.26
2019-01-31T02:08:00.393Z,-0.24
2019-01-31T02:11:01.868Z,-0.21
2019-01-31T02:14:16.892Z,-0.21
2019-01-31T02:17:32.139Z,-0.23
2019-01-31T02:20:28.932Z,-0.19
2019-01-31T02:23:29.122Z,-0.20
2019-01-31T02:26:17.871Z,-0.23
2019-01-31T02:29:28.217Z,-0.20
2019-01-31T02:32:12.319Z,-0.20
2019-01-31T02:35:14.069Z,-0.19
2019-01-31T02:37:47.942Z,-0.20
2019-01-31T02:40:47.073Z,-0.22
2019-01-31T02:43:25.493Z,-0.23
2019-01-31T02:46:45.709Z,-0.19
2019-01-31T02:49:21.580Z,-0.19
2019-01-31T02:52:26.799Z,-0.24
2019-01-31T02:55:00.818Z,-0.18
2019-01-31T02:58:24.894Z,-0.22
2019-01-31T03:01:43.253Z,-0.25
2019-01-31T03:04:39.446Z,-0.23
2019-01-31T03:07:21.108Z,-0.21
2019-01-31T03:10:25.375Z,-0.26
2019-01-31T03:13:35.985Z,-0.24
2019-01-31T03:16:47.272Z,-0.24
2019-01-31T03:19:27.611Z,-0.27
2019-01-31T03:22:41.584Z,-0.21
2019-01-31T03:25:49.294Z,-0.23
2019-01-31T03:28:54.267Z,-0.25
2019-01-31T03:32:06.695Z,-0.24
2019-01-31T03:35:19.503Z,-0.27
2019-01-31T03:38:31.420Z,-0.27
2019-01-31T03:42:05.788Z,-0.27
2019-01-31T03:44:42.070Z,-0.25
2019-01-31T03:47:52.643Z,-0.24
2019-01-31T03:50:14.107Z,-0.24
2019-01-31T03:53:18.372Z,-0.25
2019-01-31T03:55:57.222Z,-0.23
2019-01-31T03:58:51.597Z,-0.22
2019-01-31T04:02:34.949Z,-0.21
2019-01-31T04:05:43.377Z,-0.22
2019-01-31T04:07:50.385Z,-0.25
2019-01-31T04:09:57.724Z,-0.23
2019-01-31T04:12:05.231Z,-0.19
2019-01-31T04:14:12.596Z,-0.23
2019-01-31T04:16:20.069Z,-0.23
2019-01-31T04:18:26.995Z,-0.22
2019-01-31T04:20:34.177Z,-0.22
2019-01-31T04:22:41.259Z,-0.21
2019-01-31T04:24:48.436Z,-0.19
2019-01-31T04:26:55.392Z,-0.22
2019-01-31T04:29:02.418Z,-0.19
2019-01-31T04:31:09.511Z,-0.19
2019-01-31T04:33:17.525Z,-0.21
2019-01-31T04:35:24.566Z,-0.19
2019-01-31T04:37:31.618Z,-0.25
2019-01-31T04:39:39.207Z,-0.18
2019-01-31T04:41:46.291Z,-0.21
2019-01-31T04:43:53.311Z,-0.19
2019-01-31T04:46:00.328Z,-0.18
2019-01-31T04:48:07.446Z,-0.18
2019-01-31T04:50:15.699Z,-0.19
2019-01-31T04:52:22.708Z,-0.15
2019-01-31T04:54:29.632Z,-0.16
2019-01-31T04:56:36.650Z,-0.17
2019-01-31T04:58:43.670Z,-0.19
2019-01-31T05:00:51.968Z,-0.18
2019-01-31T05:02:58.976Z,-0.20
2019-01-31T05:05:07.102Z,-0.16
2019-01-31T05:07:14.200Z,-0.18
2019-01-31T05:09:21.219Z,-0.17
2019-01-31T05:11:28.259Z,-0.14
2019-01-31T05:13:35.371Z,-0.14
2019-01-31T05:15:42.427Z,-0.17
2019-01-31T05:17:49.444Z,-0.11
2019-01-31T05:22:03.580Z,-0.12
2019-01-31T05:24:10.796Z,-0.14
2019-01-31T05:26:18.153Z,-0.14
2019-01-31T05:28:25.506Z,-0.17
2019-01-31T05:30:33.126Z,-0.19
2019-01-31T05:32:40.526Z,-0.20
2019-01-31T05:34:47.496Z,-0.19
2019-01-31T05:36:54.505Z,-0.16
2019-01-31T05:39:01.673Z,-0.13
2019-01-31T05:41:08.730Z,-0.15
2019-01-31T05:43:16.033Z,-0.15
2019-01-31T05:45:23.240Z,-0.10
2019-01-31T05:47:30.314Z,-0.10
2019-01-31T05:49:37.357Z,-0.07
2019-01-31T05:51:44.779Z,-0.12
2019-01-31T05:53:51.779Z,-0.11
2019-01-31T05:55:58.916Z,-0.09
2019-01-31T05:58:05.990Z,-0.16
2019-01-31T06:00:21.761Z,-0.17
2019-01-31T06:02:28.994Z,-0.17
2019-01-31T06:04:36.045Z,-0.17
2019-01-31T06:06:43.176Z,-0.13
2019-01-31T06:08:51.151Z,-0.13
2019-01-31T06:11:07.207Z,-0.13
2019-01-31T06:13:07.081Z,-0.15
2019-01-31T06:15:16.037Z,-0.12
2019-01-31T06:17:23.095Z,-0.13
2019-01-31T06:19:30.158Z,-0.13
2019-01-31T06:21:37.130Z,-0.12
2019-01-31T06:23:44.186Z,-0.15
2019-01-31T06:25:51.240Z,-0.19
2019-01-31T06:27:58.357Z,-0.14
2019-01-31T06:30:06.266Z,-0.13
2019-01-31T06:32:13.333Z,-0.15
2019-01-31T06:34:20.370Z,-0.15
2019-01-31T06:36:27.531Z,-0.15
2019-01-31T06:38:34.530Z,-0.13
2019-01-31T06:40:41.817Z,-0.15
2019-01-31T06:42:49.249Z,-0.13
2019-01-31T06:44:56.345Z,-0.13
2019-01-31T06:47:03.503Z,-0.15
2019-01-31T06:49:10.727Z,-0.15
2019-01-31T06:51:18.838Z,-0.16
2019-01-31T06:53:25.937Z,-0.14
2019-01-31T06:55:33.269Z,-0.10
2019-01-31T06:57:40.328Z,-0.10
2019-01-31T06:59:47.572Z,-0.11
2019-01-31T07:01:55.067Z,-0.11
2019-01-31T07:04:02.133Z,-0.08
2019-01-31T07:06:09.263Z,-0.11
2019-01-31T07:08:16.412Z,-0.09
2019-01-31T07:10:26.487Z,-0.10
2019-01-31T07:12:33.588Z,-0.12
2019-01-31T07:14:40.781Z,-0.13
2019-01-31T07:16:47.826Z,-0.10
2019-01-31T07:18:54.997Z,-0.09
2019-01-31T07:21:02.071Z,-0.10
2019-01-31T07:23:09.074Z,-0.10
2019-01-31T07:25:19.748Z,-0.10
2019-01-31T07:27:26.853Z,-0.12
2019-01-31T07:29:33.878Z,-0.15
2019-01-31T07:31:40.814Z,-0.09
2019-01-31T07:33:48.040Z,-0.09
2019-01-31T07:35:55.149Z,-0.09
2019-01-31T07:38:02.216Z,-0.11
2019-01-31T07:40:10.331Z,-0.11
2019-01-31T07:42:17.535Z,-0.12
2019-01-31T07:44:24.664Z,-0.12
2019-01-31T07:46:31.744Z,-0.13
2019-01-31T07:48:38.977Z,-0.13
2019-01-31T07:50:46.205Z,-0.14
2019-01-31T07:52:53.353Z,-0.13
2019-01-31T07:55:01.997Z,-0.13
2019-01-31T07:57:09.566Z,-0.13
2019-01-31T07:59:16.786Z,-0.15
2019-01-31T08:01:23.867Z,-0.13
2019-01-31T08:03:30.996Z,-0.12
2019-01-31T08:05:38.162Z,-0.10
2019-01-31T08:07:45.225Z,-0.12
2019-01-31T08:09:52.389Z,-0.13
2019-01-31T08:11:59.519Z,-0.12
2019-01-31T08:14:06.731Z,-0.13
2019-01-31T08:16:13.781Z,-0.11
2019-01-31T08:18:20.931Z,-0.12
2019-01-31T08:20:27.984Z,-0.12
2019-01-31T08:22:35.054Z,-0.10
2019-01-31T08:24:42.233Z,-0.09
2019-01-31T08:26:49.263Z,-0.06
2019-01-31T08:28:56.360Z,-0.09
2019-01-31T08:31:03.555Z,-0.07
2019-01-31T08:33:10.587Z,-0.05
2019-01-31T08:35:17.590Z,-0.09
2019-01-31T08:37:24.763Z,-0.09
2019-01-31T08:39:31.843Z,-0.11
2019-01-31T08:41:38.926Z,-0.10
2019-01-31T08:43:46.733Z,-0.09
2019-01-31T08:45:53.869Z,-0.09
2019-01-31T08:48:00.972Z,-0.08
2019-01-31T08:50:10.786Z,-0.07
2019-01-31T08:52:17.840Z,-0.10
2019-01-31T08:54:24.932Z,-0.10
2019-01-31T08:56:31.968Z,-0.09
2019-01-31T08:58:39.012Z,-0.07
2019-01-31T09:00:46.043Z,-0.09
2019-01-31T09:02:53.083Z,-0.07
2019-01-31T09:05:00.317Z,-0.09
2019-01-31T09:07:07.392Z,-0.10
2019-01-31T09:09:15.910Z,-0.11
2019-01-31T09:11:23.881Z,-0.04
2019-01-31T09:13:31.773Z,-0.07
2019-01-31T09:15:38.866Z,-0.09
2019-01-31T09:17:46.067Z,-0.06
2019-01-31T09:19:53.091Z,-0.12
2019-01-31T09:22:24.449Z,-0.09
2019-01-31T09:25:22.068Z,-0.08
2019-01-31T09:28:16.431Z,-0.09
2019-01-31T09:31:29.753Z,-0.07
2019-01-31T09:34:42.222Z,-0.07
2019-01-31T09:37:53.315Z,-0.04
2019-01-31T09:41:15.543Z,-0.05
2019-01-31T09:44:08.090Z,-0.07
2019-01-31T09:47:08.544Z,-0.05
2019-01-31T09:50:11.690Z,-0.07
2019-01-31T09:53:30.875Z,-0.03
2019-01-31T09:56:29.281Z,-0.05
2019-01-31T09:59:28.573Z,-0.04
2019-01-31T10:02:44.472Z,0.03
2019-01-31T10:05:27.706Z,0.00
2019-01-31T10:08:12.223Z,0.06
2019-01-31T10:11:17.466Z,-0.01
2019-01-31T10:14:16.774Z,-0.02
2019-01-31T10:17:31.434Z,-0.01
2019-01-31T10:20:34.026Z,-0.02
2019-01-31T10:23:12.762Z,0.03
2019-01-31T10:25:53.847Z,0.01
2019-01-31T10:28:52.855Z,0.01
2019-01-31T10:32:14.705Z,-0.01
2019-01-31T10:35:30.619Z,0.03
2019-01-31T10:38:26.531Z,-0.04
2019-01-31T10:41:41.700Z,-0.01
2019-01-31T10:44:48.887Z,-0.03
2019-01-31T10:48:12.261Z,-0.04
2019-01-31T10:50:50.357Z,0.03
2019-01-31T10:53:50.329Z,0.04
2019-01-31T10:56:45.847Z,0.10
2019-01-31T10:59:16.210Z,0.12
2019-01-31T11:02:18.267Z,0.13
2019-01-31T11:05:26.196Z,0.14
2019-01-31T11:08:46.326Z,0.14
2019-01-31T11:11:19.779Z,0.13
2019-01-31T11:14:13.347Z,0.18
2019-01-31T11:17:34.549Z,0.20
2019-01-31T11:20:22.498Z,0.20
2019-01-31T11:23:14.706Z,0.21
2019-01-31T11:26:14.182Z,0.22
2019-01-31T11:29:33.977Z,0.22
2019-01-31T11:32:38.432Z,0.22
2019-01-31T11:35:45.082Z,0.20
2019-01-31T11:38:32.946Z,0.21
2019-01-31T11:41:21.625Z,0.19
2019-01-31T11:44:11.423Z,0.14
2019-01-31T11:47:12.784Z,0.11
2019-01-31T11:50:04.170Z,0.15
2019-01-31T11:53:03.598Z,0.14
2019-01-31T11:55:34.602Z,0.15
2019-01-31T11:58:58.442Z,0.14
2019-01-31T12:01:07.494Z,0.12
2019-01-31T12:03:14.585Z,0.18
2019-01-31T12:05:22.163Z,0.12
2019-01-31T12:07:29.199Z,0.13
2019-01-31T12:09:36.359Z,0.11
2019-01-31T12:11:43.514Z,0.18
2019-01-31T12:13:50.669Z,0.16
2019-01-31T12:15:57.688Z,0.16
2019-01-31T12:18:04.891Z,0.13
2019-01-31T12:20:12.515Z,0.17
2019-01-31T12:22:19.594Z,0.15
2019-01-31T12:24:26.701Z,0.14
2019-01-31T12:26:33.799Z,0.18
2019-01-31T12:28:41.458Z,0.15
2019-01-31T12:30:48.555Z,0.15
2019-01-31T12:32:55.564Z,0.18
2019-01-31T12:35:02.753Z,0.19
2019-01-31T12:37:09.870Z,0.19
2019-01-31T12:39:16.970Z,0.21
2019-01-31T12:41:24.085Z,0.22
2019-01-31T12:43:35.262Z,0.26
2019-01-31T12:45:39.985Z,0.26
2019-01-31T12:47:47.141Z,0.25
2019-01-31T12:49:54.298Z,0.25
2019-01-31T12:52:04.082Z,0.25
2019-01-31T12:54:10.267Z,0.26
2019-01-31T12:56:17.433Z,0.25
2019-01-31T12:58:33.358Z,0.24
2019-01-31T13:00:33.273Z,0.27
2019-01-31T13:02:40.497Z,0.24
2019-01-31T13:04:47.648Z,0.28
2019-01-31T13:06:54.879Z,0.29
2019-01-31T13:09:02.039Z,0.30
2019-01-31T13:11:09.172Z,0.30
2019-01-31T13:13:16.384Z,0.26
2019-01-31T13:15:23.453Z,0.30
2019-01-31T13:17:30.543Z,0.30
2019-01-31T13:19:37.830Z,0.28
2019-01-31T13:21:44.983Z,0.30
2019-01-31T13:23:52.215Z,0.29
2019-01-31T13:25:59.334Z,0.31
2019-01-31T13:28:06.437Z,0.30
2019-01-31T13:30:17.218Z,0.33
2019-01-31T13:32:24.963Z,0.30
2019-01-31T13:34:32.185Z,0.26
2019-01-31T13:36:39.281Z,0.29
2019-01-31T13:38:46.368Z,0.32
2019-01-31T13:40:53.489Z,0.27
2019-01-31T13:43:00.728Z,0.25
2019-01-31T13:45:10.000Z,0.24
2019-01-31T13:47:17.593Z,0.24
2019-01-31T13:49:24.790Z,0.24
2019-01-31T13:51:31.956Z,0.22
2019-01-31T13:53:39.327Z,0.22
2019-01-31T13:55:46.620Z,0.26
2019-01-31T13:57:54.149Z,0.24
2019-01-31T14:00:01.397Z,0.25
2019-01-31T14:02:09.421Z,0.24
2019-01-31T14:04:16.885Z,0.23
2019-01-31T14:06:23.918Z,0.22
2019-01-31T14:08:31.144Z,0.23
2019-01-31T14:10:38.382Z,0.25
2019-01-31T14:12:45.680Z,0.23
2019-01-31T14:14:52.887Z,0.23
2019-01-31T14:17:00.112Z,0.20
2019-01-31T14:19:07.455Z,0.24
2019-01-31T14:21:14.906Z,0.21
2019-01-31T14:23:22.233Z,0.23
2019-01-31T14:25:29.633Z,0.22
2019-01-31T14:27:37.006Z,0.20
2019-01-31T14:29:44.261Z,0.21
2019-01-31T14:31:51.513Z,0.20
2019-01-31T14:33:58.631Z,0.19
2019-01-31T14:36:05.879Z,0.20
2019-01-31T14:38:13.307Z,0.21
2019-01-31T14:40:20.455Z,0.19
2019-01-31T14:42:27.603Z,0.22
2019-01-31T14:44:34.839Z,0.22
2019-01-31T14:46:41.889Z,0.20
2019-01-31T14:48:48.957Z,0.20
2019-01-31T14:50:56.080Z,0.19
2019-01-31T14:53:03.756Z,0.22
2019-01-31T14:55:11.327Z,0.21
2019-01-31T14:57:18.492Z,0.24
2019-01-31T14:59:25.679Z,0.21
2019-01-31T15:01:32.921Z,0.22
2019-01-31T15:03:40.482Z,0.22
2019-01-31T15:05:47.762Z,0.23
2019-01-31T15:07:54.879Z,0.21
2019-01-31T15:10:02.172Z,0.23
2019-01-31T15:12:09.333Z,0.22
2019-01-31T15:14:16.417Z,0.22
2019-01-31T15:16:23.532Z,0.22
2019-01-31T15:18:30.824Z,0.20
2019-01-31T15:20:44.303Z,0.20
2019-01-31T15:22:51.440Z,0.19
2019-01-31T15:24:58.704Z,0.20
2019-01-31T15:27:05.817Z,0.19
2019-01-31T15:29:13.083Z,0.18
2019-01-31T15:31:20.411Z,0.18
2019-01-31T15:33:27.861Z,0.19
2019-01-31T15:35:35.148Z,0.17
2019-01-31T15:37:42.300Z,0.19
2019-01-31T15:39:49.518Z,0.18
2019-01-31T15:41:56.680Z,0.15
2019-01-31T15:44:03.881Z,0.15
2019-01-31T15:46:12.840Z,0.19
2019-01-31T15:48:19.933Z,0.18
2019-01-31T15:50:27.032Z,0.17
2019-01-31T15:52:34.126Z,0.16
2019-01-31T15:54:41.292Z,0.19
2019-01-31T15:56:48.540Z,0.16
2019-01-31T15:58:55.691Z,0.19
2019-01-31T16:01:02.969Z,0.18
2019-01-31T16:03:13.046Z,0.17
2019-01-31T16:05:20.128Z,0.19
2019-01-31T16:07:27.231Z,0.16
2019-01-31T16:09:34.339Z,0.18
2019-01-31T16:11:41.251Z,0.17
2019-01-31T16:13:48.820Z,0.16
2019-01-31T16:15:56.058Z,0.16
2019-01-31T16:18:03.168Z,0.17
2019-01-31T16:20:12.235Z,0.17
2019-01-31T16:22:19.345Z,0.18
2019-01-31T16:24:26.512Z,0.16
2019-01-31T16:26:33.596Z,0.19
2019-01-31T16:28:40.755Z,0.18
2019-01-31T16:30:50.732Z,0.21
2019-01-31T16:32:58.183Z,0.19
2019-01-31T16:35:06.039Z,0.19
2019-01-31T16:37:13.265Z,0.17
2019-01-31T16:39:20.328Z,0.18
2019-01-31T16:41:27.815Z,0.19
2019-01-31T16:43:35.322Z,0.17
2019-01-31T16:45:45.895Z,0.16
2019-01-31T16:47:51.599Z,0.15
2019-01-31T16:49:58.695Z,0.15
2019-01-31T16:52:06.487Z,0.16
2019-01-31T16:54:14.314Z,0.17
2019-01-31T16:56:21.812Z,0.13
2019-01-31T16:58:29.137Z,0.11
2019-01-31T17:00:36.347Z,0.12
2019-01-31T17:02:44.833Z,0.11
2019-01-31T17:04:52.176Z,0.14
2019-01-31T17:06:59.801Z,0.13
2019-01-31T17:09:10.201Z,0.13
2019-01-31T17:11:17.698Z,0.12
2019-01-31T17:13:24.959Z,0.11
2019-01-31T17:15:32.280Z,0.12
2019-01-31T17:17:39.780Z,0.08
2019-01-31T17:19:46.903Z,0.07
2019-01-31T17:21:54.175Z,0.05
2019-01-31T17:24:01.763Z,0.09
2019-01-31T17:26:09.289Z,0.03
2019-01-31T17:28:16.780Z,0.02
2019-01-31T17:30:25.620Z,0.03
2019-01-31T17:32:32.779Z,0.03
2019-01-31T17:34:40.781Z,0.05
2019-01-31T17:36:48.617Z,0.06
2019-01-31T17:38:56.169Z,0.04
2019-01-31T17:41:04.253Z,0.02
2019-01-31T17:43:13.422Z,0.03
2019-01-31T17:45:30.021Z,-0.01
2019-01-31T17:47:29.833Z,0.03
2019-01-31T17:49:37.109Z,0.01
2019-01-31T17:51:44.305Z,0.04
2019-01-31T17:53:51.670Z,0.03
2019-01-31T17:55:58.932Z,0.03
2019-01-31T17:58:06.659Z,0.05
2019-01-31T18:00:24.427Z,0.05
2019-01-31T18:02:31.943Z,0.04
2019-01-31T18:04:39.315Z,0.03
2019-01-31T18:06:47.223Z,0.03
2019-01-31T18:08:54.634Z,0.02
2019-01-31T18:11:02.067Z,0.09
2019-01-31T18:13:10.422Z,-0.01
2019-01-31T18:15:18.662Z,0.03
2019-01-31T18:17:29.821Z,0.01
2019-01-31T18:19:35.805Z,0.04
2019-01-31T18:21:43.414Z,0.09
2019-01-31T18:23:51.096Z,-0.01
2019-01-31T18:25:59.362Z,0.01
2019-01-31T18:28:07.365Z,0.01
2019-01-31T18:30:22.049Z,0.02
2019-01-31T18:32:29.928Z,0.02
2019-01-31T18:34:38.849Z,0.03
2019-01-31T18:36:46.830Z,0.06
2019-01-31T18:38:57.534Z,0.04
2019-01-31T18:41:04.226Z,0.07
2019-01-31T18:43:11.560Z,0.05
2019-01-31T18:45:22.478Z,0.08
2019-01-31T18:47:30.712Z,0.06
2019-01-31T18:49:38.672Z,0.04
2019-01-31T18:51:46.359Z,0.06
2019-01-31T18:53:54.366Z,0.06
2019-01-31T18:56:02.433Z,0.08
2019-01-31T18:58:11.581Z,0.06
2019-01-31T19:00:24.408Z,0.11
2019-01-31T19:02:31.647Z,0.08
2019-01-31T19:04:38.729Z,0.13
2019-01-31T19:06:45.951Z,0.11
2019-01-31T19:08:53.053Z,0.07
2019-01-31T19:11:00.405Z,0.03
2019-01-31T19:13:08.373Z,0.04
2019-01-31T19:15:16.844Z,0.04
2019-01-31T19:17:24.506Z,0.07
2019-01-31T19:19:31.819Z,0.05
2019-01-31T19:21:39.005Z,0.06
2019-01-31T19:23:46.261Z,0.06
2019-01-31T19:25:53.472Z,0.07
2019-01-31T19:28:00.558Z,0.06
2019-01-31T19:30:19.098Z,0.05
2019-01-31T19:32:26.328Z,0.03
2019-01-31T19:34:33.601Z,0.06
2019-01-31T19:36:41.069Z,0.06
2019-01-31T19:38:48.354Z,0.05
2019-01-31T19:40:55.758Z,0.03
2019-01-31T19:43:03.043Z,0.03
2019-01-31T19:45:15.872Z,0.03
2019-01-31T19:47:23.349Z,0.06
2019-01-31T19:49:31.656Z,0.08
2019-01-31T19:51:38.808Z,0.05
2019-01-31T19:53:48.391Z,0.03
2019-01-31T19:55:55.101Z,0.03
2019-01-31T19:58:02.291Z,0.03
2019-01-31T20:00:11.580Z,0.04
2019-01-31T20:02:19.118Z,0.03
2019-01-31T20:04:26.359Z,0.03
2019-01-31T20:06:33.997Z,0.05
2019-01-31T20:08:41.699Z,0.02
2019-01-31T20:10:49.322Z,0.03
2019-01-31T20:12:58.431Z,0.05
2019-01-31T20:15:07.315Z,0.03
2019-01-31T20:17:14.928Z,0.03
2019-01-31T20:19:22.903Z,0.02
2019-01-31T20:21:30.762Z,0.01
2019-01-31T20:23:38.414Z,0.03
2019-01-31T20:25:52.741Z,0.02
2019-01-31T20:28:00.442Z,0.04
2019-01-31T20:30:09.456Z,0.02
2019-01-31T20:32:16.605Z,0.02
2019-01-31T20:34:24.279Z,0.01
2019-01-31T20:36:32.153Z,0.02
2019-01-31T20:38:40.321Z,0.00
2019-01-31T20:40:47.692Z,-0.02
2019-01-31T20:42:54.800Z,-0.01
2019-01-31T20:45:01.975Z,0.03
2019-01-31T20:47:09.081Z,0.01
2019-01-31T20:49:16.256Z,0.01
2019-01-31T20:51:23.459Z,-0.02
2019-01-31T20:53:30.737Z,0.00
2019-01-31T20:55:37.873Z,0.01
2019-01-31T20:57:45.110Z,-0.02
2019-01-31T20:59:58.086Z,-0.02
2019-01-31T21:02:05.400Z,-0.02
2019-01-31T21:04:12.607Z,0.01
2019-01-31T21:06:19.851Z,-0.02
2019-01-31T21:08:27.223Z,-0.02
2019-01-31T21:10:34.530Z,-0.02
2019-01-31T21:12:41.759Z,-0.06
2019-01-31T21:14:49.099Z,-0.05
2019-01-31T21:16:56.324Z,-0.01
2019-01-31T21:19:03.400Z,-0.01
2019-01-31T21:21:10.495Z,-0.02
2019-01-31T21:23:17.809Z,-0.05
2019-01-31T21:25:24.995Z,-0.05
2019-01-31T21:27:32.241Z,-0.06
2019-01-31T21:29:39.537Z,-0.07
2019-01-31T21:31:46.644Z,-0.09
2019-01-31T21:33:53.966Z,-0.08
2019-01-31T21:36:01.092Z,-0.08
2019-01-31T21:38:08.784Z,-0.07
2019-01-31T21:40:15.938Z,-0.06
2019-01-31T21:42:23.065Z,-0.08
2019-01-31T21:44:30.332Z,-0.08
2019-01-31T21:46:37.530Z,-0.09
2019-01-31T21:48:44.810Z,-0.07
2019-01-31T21:50:52.011Z,-0.13
2019-01-31T21:52:59.147Z,-0.15
2019-01-31T21:55:07.107Z,-0.20
2019-01-31T21:57:14.205Z,-0.14
2019-01-31T21:59:21.459Z,-0.19
2019-01-31T22:01:28.903Z,-0.14
2019-01-31T22:03:36.238Z,-0.19
2019-01-31T22:05:43.658Z,-0.21
2019-01-31T22:07:51.246Z,-0.20
2019-01-31T22:09:58.995Z,-0.27
2019-01-31T22:12:06.323Z,-0.25
2019-01-31T22:14:14.042Z,-0.30
2019-01-31T22:16:21.961Z,-0.28
2019-01-31T22:18:29.363Z,-0.23
2019-01-31T22:20:37.576Z,-0.23
2019-01-31T22:22:45.641Z,-0.24
2019-01-31T22:24:52.721Z,-0.28
2019-01-31T22:26:59.922Z,-0.27
2019-01-31T22:29:08.361Z,-0.31
2019-01-31T22:31:15.785Z,-0.29
2019-01-31T22:33:22.890Z,-0.32
2019-01-31T22:35:30.102Z,-0.35
2019-01-31T22:37:37.407Z,-0.34
2019-01-31T22:39:44.515Z,-0.34
2019-01-31T22:41:51.666Z,-0.35
2019-01-31T22:43:58.955Z,-0.37
2019-01-31T22:46:06.121Z,-0.36
2019-01-31T22:48:13.458Z,-0.38
2019-01-31T22:50:22.225Z,-0.39
2019-01-31T22:52:29.300Z,-0.43
2019-01-31T22:54:36.534Z,-0.38
2019-01-31T22:56:43.603Z,-0.38
2019-01-31T22:58:50.734Z,-0.36
2019-01-31T23:01:39.351Z,-0.43
2019-01-31T23:03:46.538Z,-0.46
2019-01-31T23:05:53.682Z,-0.45
2019-01-31T23:08:00.894Z,-0.42
2019-01-31T23:10:08.571Z,-0.50
2019-01-31T23:12:15.695Z,-0.45
2019-01-31T23:14:22.930Z,-0.51
2019-01-31T23:16:30.408Z,-0.52
2019-01-31T23:18:37.600Z,-0.57
2019-01-31T23:20:44.828Z,-0.59
2019-01-31T23:22:52.031Z,-0.61
2019-01-31T23:24:59.084Z,-0.60
2019-01-31T23:27:06.226Z,-0.60
2019-01-31T23:29:13.298Z,-0.56
2019-01-31T23:31:20.503Z,-0.61
2019-01-31T23:33:27.578Z,-0.63
2019-01-31T23:35:34.799Z,-0.64
2019-01-31T23:37:41.951Z,-0.68
2019-01-31T23:39:49.136Z,-0.63
2019-01-31T23:41:56.264Z,-0.67
2019-01-31T23:44:03.393Z,-0.67
2019-01-31T23:46:10.466Z,-0.68
2019-01-31T23:48:17.696Z,-0.70
2019-01-31T23:50:24.745Z,-0.71
2019-01-31T23:52:31.821Z,-0.68
2019-01-31T23:54:38.967Z,-0.70
2019-01-31T23:56:46.072Z,-0.68
2019-01-31T23:58:53.158Z,-0.68
